createdAt,value
2023-03-29T00:02:30.122Z,3.73
2023-03-29T00:04:58.237Z,3.03
2023-03-29T00:07:26.110Z,3.60
2023-03-29T00:09:53.360Z,3.20
2023-03-29T00:12:20.725Z,3.53
2023-03-29T00:14:48.354Z,3.40
2023-03-29T00:17:17.034Z,2.95
2023-03-29T00:19:47.829Z,3.75
2023-03-29T00:22:15.313Z,3.25
2023-03-29T00:24:42.655Z,3.60
2023-03-29T00:27:09.942Z,3.57
2023-03-29T00:29:37.191Z,3.33
2023-03-29T00:32:04.453Z,3.55
2023-03-29T00:34:31.767Z,3.92
2023-03-29T00:36:59.576Z,3.30
2023-03-29T00:39:28.000Z,3.10
2023-03-29T00:41:56.178Z,3.30
2023-03-29T00:44:42.010Z,3.53
2023-03-29T00:47:09.326Z,3.20
2023-03-29T00:49:36.636Z,3.20
2023-03-29T00:52:04.156Z,2.90
2023-03-29T00:54:32.917Z,3.08
2023-03-29T00:57:04.046Z,3.78
2023-03-29T00:59:32.979Z,3.17
2023-03-29T01:02:07.412Z,3.58
2023-03-29T01:04:36.377Z,3.23
2023-03-29T01:07:06.418Z,3.33
2023-03-29T01:09:36.047Z,3.78
2023-03-29T01:12:04.506Z,3.80
2023-03-29T01:14:36.654Z,4.43
2023-03-29T01:17:04.825Z,3.30
2023-03-29T01:19:35.079Z,3.45
2023-03-29T01:22:13.635Z,3.50
2023-03-29T01:24:56.577Z,3.35
2023-03-29T01:27:35.979Z,3.55
2023-03-29T01:30:06.785Z,3.03
2023-03-29T01:32:44.706Z,2.72
2023-03-29T01:35:15.929Z,3.55
2023-03-29T01:37:48.215Z,3.60
2023-03-29T01:40:15.622Z,3.78
2023-03-29T01:43:01.834Z,3.67
2023-03-29T01:45:35.632Z,3.60
2023-03-29T01:48:10.226Z,3.22
2023-03-29T01:50:56.955Z,3.45
2023-03-29T01:53:36.443Z,3.55
2023-03-29T01:56:09.425Z,3.40
2023-03-29T01:58:38.936Z,3.03
2023-03-29T02:01:10.426Z,2.88
2023-03-29T02:03:42.512Z,3.25
2023-03-29T02:06:13.982Z,3.67
2023-03-29T02:08:42.290Z,3.50
2023-03-29T02:11:09.712Z,3.22
2023-03-29T02:13:37.421Z,3.35
2023-03-29T02:16:12.568Z,3.28
2023-03-29T02:18:44.784Z,3.45
2023-03-29T02:21:16.328Z,3.67
2023-03-29T02:23:48.993Z,3.78
2023-03-29T02:26:17.733Z,4.15
2023-03-29T02:28:45.925Z,3.63
2023-03-29T02:31:25.281Z,3.90
2023-03-29T02:34:08.997Z,3.83
2023-03-29T02:36:42.293Z,3.97
2023-03-29T02:39:13.977Z,3.50
2023-03-29T02:41:42.798Z,3.33
2023-03-29T02:44:14.076Z,3.50
2023-03-29T02:46:43.950Z,3.10
2023-03-29T02:49:12.569Z,3.50
2023-03-29T02:51:39.946Z,4.07
2023-03-29T02:54:13.002Z,3.72
2023-03-29T02:56:44.919Z,3.58
2023-03-29T02:59:12.877Z,3.93
2023-03-29T03:01:42.844Z,3.45
2023-03-29T03:04:10.923Z,4.38
2023-03-29T03:06:38.728Z,3.80
2023-03-29T03:09:06.678Z,3.85
2023-03-29T03:11:37.252Z,3.40
2023-03-29T03:14:05.792Z,3.58
2023-03-29T03:16:33.044Z,3.70
2023-03-29T03:19:01.092Z,3.75
2023-03-29T03:21:28.738Z,3.65
2023-03-29T03:23:55.937Z,4.20
2023-03-29T03:26:24.979Z,3.55
2023-03-29T03:28:52.317Z,4.53
2023-03-29T03:31:41.289Z,3.55
2023-03-29T03:34:15.591Z,3.72
2023-03-29T03:36:57.041Z,2.93
2023-03-29T03:39:24.333Z,3.88
2023-03-29T03:41:51.659Z,3.78
2023-03-29T03:44:19.511Z,3.70
2023-03-29T03:46:52.954Z,4.05
2023-03-29T03:49:21.928Z,4.20
2023-03-29T03:51:51.008Z,3.00
2023-03-29T03:54:19.542Z,3.75
2023-03-29T03:57:09.992Z,3.75
2023-03-29T03:59:45.688Z,3.90
2023-03-29T04:02:18.021Z,3.47
2023-03-29T04:04:46.355Z,3.60
2023-03-29T04:07:18.016Z,4.30
2023-03-29T04:10:04.363Z,3.95
2023-03-29T04:12:31.871Z,4.63
2023-03-29T04:14:59.280Z,3.87
2023-03-29T04:17:27.849Z,3.50
2023-03-29T04:19:58.276Z,3.97
2023-03-29T04:22:28.410Z,4.25
2023-03-29T04:24:55.729Z,4.10
2023-03-29T04:27:55.045Z,4.10
2023-03-29T04:30:47.330Z,4.68
2023-03-29T04:33:34.260Z,4.22
2023-03-29T04:36:01.966Z,3.55
2023-03-29T04:38:31.181Z,4.97
2023-03-29T04:40:58.653Z,3.80
2023-03-29T04:43:53.642Z,3.72
2023-03-29T04:46:26.595Z,4.45
2023-03-29T04:49:20.320Z,4.22
2023-03-29T04:51:51.283Z,4.00
2023-03-29T04:54:21.857Z,4.30
2023-03-29T04:57:15.628Z,4.07
2023-03-29T04:59:46.381Z,4.47
2023-03-29T05:02:36.822Z,4.13
2023-03-29T05:05:04.433Z,4.03
2023-03-29T05:07:32.441Z,4.10
2023-03-29T05:09:59.912Z,3.58
2023-03-29T05:12:27.761Z,4.47
2023-03-29T05:14:57.454Z,4.43
2023-03-29T05:17:27.476Z,4.50
2023-03-29T05:20:00.101Z,4.47
2023-03-29T05:22:29.692Z,4.63
2023-03-29T05:24:57.511Z,4.50
2023-03-29T05:27:25.458Z,4.13
2023-03-29T05:30:01.767Z,4.60
2023-03-29T05:33:07.776Z,4.40
2023-03-29T05:35:36.074Z,3.80
2023-03-29T05:38:07.184Z,4.25
2023-03-29T05:40:35.913Z,4.28
2023-03-29T05:43:21.678Z,4.93
2023-03-29T05:45:49.322Z,4.73
2023-03-29T05:48:17.163Z,4.20
2023-03-29T05:50:48.476Z,5.13
2023-03-29T05:53:20.251Z,4.15
2023-03-29T05:55:48.625Z,4.88
2023-03-29T05:58:19.003Z,4.23
2023-03-29T06:00:49.536Z,4.82
2023-03-29T06:03:33.799Z,4.70
2023-03-29T06:06:05.244Z,3.88
2023-03-29T06:08:35.132Z,4.82
2023-03-29T06:11:09.018Z,4.63
2023-03-29T06:14:13.485Z,4.72
2023-03-29T06:16:47.112Z,4.72
2023-03-29T06:19:15.092Z,4.68
2023-03-29T06:21:42.443Z,5.80
2023-03-29T06:24:13.445Z,4.70
2023-03-29T06:26:46.487Z,4.85
2023-03-29T06:29:14.698Z,5.28
2023-03-29T06:31:43.239Z,4.65
2023-03-29T06:34:23.824Z,4.80
2023-03-29T06:36:59.745Z,5.00
2023-03-29T06:39:27.109Z,5.18
2023-03-29T06:42:21.576Z,5.53
2023-03-29T06:45:23.785Z,5.10
2023-03-29T06:47:51.887Z,5.65
2023-03-29T06:50:19.394Z,5.20
2023-03-29T06:52:56.643Z,4.97
2023-03-29T06:55:25.140Z,6.00
2023-03-29T06:57:55.078Z,5.78
2023-03-29T07:00:29.945Z,5.47
2023-03-29T07:03:26.030Z,5.63
2023-03-29T07:06:02.706Z,5.22
2023-03-29T07:08:31.677Z,6.00
2023-03-29T07:11:04.192Z,5.95
2023-03-29T07:13:56.393Z,5.88
2023-03-29T07:16:24.233Z,5.60
2023-03-29T07:18:51.540Z,6.25
2023-03-29T07:21:42.310Z,5.53
2023-03-29T07:24:10.447Z,5.38
2023-03-29T07:26:40.461Z,5.60
2023-03-29T07:29:11.842Z,5.57
2023-03-29T07:31:41.624Z,5.28
2023-03-29T07:34:30.024Z,5.68
2023-03-29T07:36:57.847Z,5.57
2023-03-29T07:39:26.155Z,5.65
2023-03-29T07:42:16.950Z,6.13
2023-03-29T07:44:44.327Z,5.85
2023-03-29T07:47:12.678Z,6.57
2023-03-29T07:49:40.154Z,6.03
2023-03-29T07:52:07.637Z,6.55
2023-03-29T07:54:35.700Z,6.03
2023-03-29T07:57:19.020Z,6.80
2023-03-29T07:59:52.365Z,6.40
2023-03-29T08:02:23.509Z,6.35
2023-03-29T08:04:54.040Z,6.60
2023-03-29T08:07:24.865Z,6.47
2023-03-29T08:10:04.344Z,6.63
2023-03-29T08:12:47.880Z,7.18
2023-03-29T08:15:17.141Z,7.03
2023-03-29T08:17:44.713Z,7.13
2023-03-29T08:20:13.533Z,6.93
2023-03-29T08:22:43.708Z,7.20
2023-03-29T08:25:13.995Z,7.28
2023-03-29T08:27:45.346Z,7.75
2023-03-29T08:30:15.836Z,7.82
2023-03-29T08:32:43.170Z,6.60
2023-03-29T08:35:11.036Z,7.38
2023-03-29T08:37:52.851Z,7.47
2023-03-29T08:40:21.583Z,7.18
2023-03-29T08:43:26.114Z,8.07
2023-03-29T08:46:21.210Z,7.37
2023-03-29T08:48:53.976Z,8.35
2023-03-29T08:51:28.331Z,7.50
2023-03-29T08:53:58.951Z,8.40
2023-03-29T08:56:34.259Z,8.07
2023-03-29T08:59:28.771Z,7.67
2023-03-29T09:01:58.390Z,7.72
2023-03-29T09:04:30.491Z,7.72
2023-03-29T09:07:11.500Z,8.27
2023-03-29T09:09:43.618Z,8.52
2023-03-29T09:12:31.355Z,7.60
2023-03-29T09:14:58.665Z,7.20
2023-03-29T09:17:38.889Z,7.47
2023-03-29T09:20:28.902Z,8.18
2023-03-29T09:22:59.224Z,7.35
2023-03-29T09:25:53.413Z,8.17
2023-03-29T09:28:24.458Z,7.72
2023-03-29T09:30:59.220Z,8.10
2023-03-29T09:33:29.034Z,7.55
2023-03-29T09:36:24.551Z,7.70
2023-03-29T09:38:55.401Z,8.00
2023-03-29T09:41:37.111Z,8.98
2023-03-29T09:44:24.143Z,8.10
2023-03-29T09:47:09.647Z,8.95
2023-03-29T09:49:40.946Z,9.13
2023-03-29T09:52:11.745Z,8.80
2023-03-29T09:54:40.208Z,8.82
2023-03-29T09:57:36.420Z,9.05
2023-03-29T10:00:06.150Z,8.90
2023-03-29T10:02:41.151Z,8.73
2023-03-29T10:05:16.689Z,8.50
2023-03-29T10:07:49.718Z,8.25
2023-03-29T10:10:22.744Z,9.50
2023-03-29T10:12:54.752Z,8.65
2023-03-29T10:17:58.138Z,8.00
2023-03-29T10:20:25.491Z,8.23
2023-03-29T10:22:57.083Z,7.55
2023-03-29T10:25:29.507Z,7.90
2023-03-29T10:28:03.662Z,8.05
2023-03-29T10:30:34.655Z,7.93
2023-03-29T10:33:02.525Z,9.00
2023-03-29T10:35:29.808Z,9.45
2023-03-29T10:37:59.424Z,9.93
2023-03-29T10:40:28.292Z,9.32
2023-03-29T10:42:58.927Z,8.27
2023-03-29T10:45:28.447Z,8.60
2023-03-29T10:47:59.703Z,7.50
2023-03-29T10:50:33.472Z,7.82
2023-03-29T10:53:02.028Z,8.30
2023-03-29T10:55:44.394Z,8.13
2023-03-29T10:58:11.660Z,9.25
2023-03-29T11:01:08.354Z,9.82
2023-03-29T11:03:54.608Z,10.02
2023-03-29T11:06:31.209Z,10.15
2023-03-29T11:09:03.558Z,9.80
2023-03-29T11:12:15.191Z,10.55
2023-03-29T11:14:49.382Z,11.07
2023-03-29T11:17:26.586Z,8.98
2023-03-29T11:20:05.359Z,9.65
2023-03-29T11:22:42.456Z,10.07
2023-03-29T11:25:23.841Z,9.43
2023-03-29T11:28:02.398Z,11.77
2023-03-29T11:30:32.438Z,10.00
2023-03-29T11:33:18.286Z,10.35
2023-03-29T11:35:45.576Z,10.33
2023-03-29T11:38:28.385Z,11.15
2023-03-29T11:40:58.507Z,9.98
2023-03-29T11:43:32.061Z,10.73
2023-03-29T11:46:02.851Z,10.02
2023-03-29T11:48:34.524Z,10.97
2023-03-29T11:51:34.128Z,10.05
2023-03-29T11:54:01.782Z,11.15
2023-03-29T11:56:36.715Z,10.20
2023-03-29T11:59:09.146Z,11.00
2023-03-29T12:01:40.227Z,10.87
2023-03-29T12:04:10.571Z,10.75
2023-03-29T12:06:56.586Z,11.90
2023-03-29T12:09:34.092Z,11.10
2023-03-29T12:12:09.494Z,11.30
2023-03-29T12:14:37.246Z,12.93
2023-03-29T12:17:05.787Z,12.57
2023-03-29T12:19:41.804Z,13.05
2023-03-29T12:22:11.126Z,12.77
2023-03-29T12:24:44.043Z,13.30
2023-03-29T12:27:19.929Z,12.53
2023-03-29T12:29:47.206Z,11.90
2023-03-29T12:32:27.426Z,12.00
2023-03-29T12:35:18.084Z,10.88
2023-03-29T12:38:17.922Z,10.95
2023-03-29T12:41:10.939Z,11.87
2023-03-29T12:44:14.582Z,11.05
2023-03-29T12:46:57.827Z,9.57
2023-03-29T12:49:35.971Z,8.63
2023-03-29T12:52:07.716Z,8.07
2023-03-29T12:54:35.072Z,7.50
2023-03-29T12:57:03.641Z,8.43
2023-03-29T12:59:43.921Z,8.82
2023-03-29T13:02:14.335Z,7.82
2023-03-29T13:04:44.862Z,8.27
2023-03-29T13:07:16.575Z,8.37
2023-03-29T13:09:51.315Z,8.35
2023-03-29T13:12:32.179Z,8.50
2023-03-29T13:15:02.003Z,8.30
2023-03-29T13:17:52.639Z,8.40
2023-03-29T13:20:38.266Z,8.10
2023-03-29T13:23:27.743Z,8.68
2023-03-29T13:26:08.180Z,8.45
2023-03-29T13:28:40.915Z,8.65
2023-03-29T13:31:17.645Z,9.40
2023-03-29T13:33:47.986Z,9.83
2023-03-29T13:36:15.895Z,9.70
2023-03-29T13:38:47.117Z,9.82
2023-03-29T13:41:28.767Z,10.23
2023-03-29T13:43:56.612Z,10.18
2023-03-29T13:46:25.477Z,10.47
2023-03-29T13:48:55.194Z,10.52
2023-03-29T13:51:27.780Z,10.45
2023-03-29T13:53:57.704Z,11.75
2023-03-29T13:56:50.896Z,10.80
2023-03-29T13:59:25.886Z,10.70
2023-03-29T14:01:57.480Z,11.18
2023-03-29T14:04:27.055Z,12.20
2023-03-29T14:06:56.156Z,11.90
2023-03-29T14:09:26.042Z,11.40
2023-03-29T14:11:53.326Z,11.00
2023-03-29T14:14:24.688Z,10.73
2023-03-29T14:16:52.052Z,12.30
2023-03-29T14:19:22.457Z,10.75
2023-03-29T14:21:52.185Z,11.38
2023-03-29T14:24:22.235Z,11.93
2023-03-29T14:26:49.995Z,10.50
2023-03-29T14:29:18.281Z,11.80
2023-03-29T14:31:46.089Z,11.75
2023-03-29T14:34:17.081Z,11.07
2023-03-29T14:36:45.629Z,10.20
2023-03-29T14:39:15.929Z,11.35
2023-03-29T14:41:47.819Z,11.95
2023-03-29T14:44:15.309Z,12.35
2023-03-29T14:46:44.667Z,11.27
2023-03-29T14:49:15.266Z,10.73
2023-03-29T14:51:42.658Z,11.75
2023-03-29T14:54:16.950Z,11.82
2023-03-29T14:56:44.875Z,11.02
2023-03-29T14:59:31.151Z,10.27
2023-03-29T15:01:58.468Z,9.03
2023-03-29T15:04:32.195Z,9.55
2023-03-29T15:06:59.643Z,8.35
2023-03-29T15:09:32.593Z,7.70
2023-03-29T15:12:00.320Z,7.72
2023-03-29T15:14:30.870Z,8.23
2023-03-29T15:17:02.188Z,7.15
2023-03-29T15:19:29.678Z,7.40
2023-03-29T15:21:56.937Z,6.40
2023-03-29T15:24:28.712Z,6.80
2023-03-29T15:27:01.363Z,6.20
2023-03-29T15:29:35.213Z,6.40
2023-03-29T15:32:03.569Z,6.70
2023-03-29T15:34:31.934Z,6.57
2023-03-29T15:36:59.691Z,7.05
2023-03-29T15:39:27.912Z,7.03
2023-03-29T15:41:56.841Z,6.95
2023-03-29T15:44:29.060Z,6.55
2023-03-29T15:46:57.844Z,6.60
2023-03-29T15:49:25.477Z,7.38
2023-03-29T15:51:56.961Z,7.20
2023-03-29T15:54:24.866Z,6.65
2023-03-29T15:56:56.649Z,6.95
2023-03-29T15:59:24.191Z,6.43
2023-03-29T16:01:51.701Z,6.25
2023-03-29T16:04:22.947Z,5.97
2023-03-29T16:06:53.148Z,6.10
2023-03-29T16:09:21.424Z,6.20
2023-03-29T16:11:49.331Z,5.72
2023-03-29T16:14:25.138Z,6.03
2023-03-29T16:16:53.030Z,5.43
2023-03-29T16:19:20.427Z,5.13
2023-03-29T16:21:48.350Z,5.28
2023-03-29T16:24:16.970Z,5.15
2023-03-29T16:26:44.436Z,4.75
2023-03-29T16:29:11.922Z,4.50
2023-03-29T16:31:39.333Z,4.40
2023-03-29T16:34:07.629Z,4.03
2023-03-29T16:36:34.998Z,4.07
2023-03-29T16:39:03.089Z,4.20
2023-03-29T16:41:31.569Z,3.73
2023-03-29T16:43:59.558Z,4.13
2023-03-29T16:46:26.876Z,4.07
2023-03-29T16:48:54.224Z,4.32
2023-03-29T16:51:21.807Z,3.65
2023-03-29T16:53:49.176Z,4.30
2023-03-29T16:56:16.568Z,3.90
2023-03-29T16:58:44.647Z,4.60
2023-03-29T17:01:13.200Z,4.38
2023-03-29T17:03:41.050Z,4.10
2023-03-29T17:06:09.206Z,3.67
2023-03-29T17:08:36.753Z,3.75
2023-03-29T17:11:04.494Z,4.07
2023-03-29T17:13:31.848Z,3.97
2023-03-29T17:15:59.199Z,3.85
2023-03-29T17:18:27.251Z,3.40
2023-03-29T17:20:58.425Z,3.85
2023-03-29T17:23:25.802Z,3.80
2023-03-29T17:25:54.854Z,3.42
2023-03-29T17:28:22.297Z,4.28
2023-03-29T17:30:49.763Z,4.43
2023-03-29T17:33:18.179Z,4.38
2023-03-29T17:35:46.606Z,3.63
2023-03-29T17:38:13.914Z,3.80
2023-03-29T17:40:41.830Z,3.90
2023-03-29T17:43:09.132Z,3.33
2023-03-29T17:45:36.548Z,3.65
2023-03-29T17:48:06.188Z,4.53
2023-03-29T17:50:33.819Z,3.75
2023-03-29T17:53:01.191Z,3.60
2023-03-29T17:55:28.478Z,4.13
2023-03-29T17:57:56.336Z,3.78
2023-03-29T18:00:23.725Z,4.38
2023-03-29T18:02:51.440Z,4.13
2023-03-29T18:05:18.799Z,4.28
2023-03-29T18:07:46.125Z,4.53
2023-03-29T18:10:13.425Z,4.35
2023-03-29T18:12:40.894Z,5.25
2023-03-29T18:15:08.646Z,4.85
2023-03-29T18:17:35.980Z,5.25
2023-03-29T18:20:09.085Z,4.87
2023-03-29T18:22:36.577Z,4.75
2023-03-29T18:25:05.602Z,5.32
2023-03-29T18:27:32.980Z,4.95
2023-03-29T18:30:00.478Z,4.85
2023-03-29T18:32:27.855Z,5.33
2023-03-29T18:34:55.683Z,5.20
2023-03-29T18:37:23.075Z,5.53
2023-03-29T18:39:50.662Z,5.50
2023-03-29T18:42:20.312Z,5.55
2023-03-29T18:44:47.637Z,4.87
2023-03-29T18:47:14.991Z,5.35
2023-03-29T18:49:43.167Z,6.00
2023-03-29T18:52:10.886Z,5.32
2023-03-29T18:54:38.679Z,6.35
2023-03-29T18:57:05.989Z,5.57
2023-03-29T18:59:35.940Z,5.75
2023-03-29T19:02:03.981Z,5.40
2023-03-29T19:04:31.289Z,4.82
2023-03-29T19:07:01.317Z,5.55
2023-03-29T19:09:28.712Z,5.40
2023-03-29T19:11:56.091Z,5.25
2023-03-29T19:14:25.231Z,5.70
2023-03-29T19:16:53.030Z,5.40
2023-03-29T19:19:20.511Z,5.45
2023-03-29T19:21:47.804Z,5.53
2023-03-29T19:24:15.408Z,4.90
2023-03-29T19:26:44.455Z,5.72
2023-03-29T19:29:12.030Z,5.43
2023-03-29T19:31:39.394Z,5.65
2023-03-29T19:34:09.541Z,5.60
2023-03-29T19:36:36.938Z,5.18
2023-03-29T19:39:05.093Z,4.93
2023-03-29T19:41:32.709Z,4.88
2023-03-29T19:43:59.993Z,5.30
2023-03-29T19:46:28.852Z,5.13
2023-03-29T19:48:56.276Z,4.97
2023-03-29T19:51:26.777Z,4.88
2023-03-29T19:53:55.048Z,5.32
2023-03-29T19:56:23.513Z,4.78
2023-03-29T19:58:51.962Z,5.50
2023-03-29T20:01:22.714Z,5.15
2023-03-29T20:03:50.630Z,5.63
2023-03-29T20:06:18.274Z,5.97
2023-03-29T20:08:45.784Z,5.80
2023-03-29T20:11:14.024Z,5.30
2023-03-29T20:13:45.556Z,5.38
2023-03-29T20:16:14.281Z,5.93
2023-03-29T20:18:41.611Z,5.57
2023-03-29T20:21:09.868Z,6.38
2023-03-29T20:23:37.220Z,5.40
2023-03-29T20:26:04.503Z,5.88
2023-03-29T20:28:31.765Z,6.05
2023-03-29T20:31:03.122Z,5.50
2023-03-29T20:33:30.591Z,5.97
2023-03-29T20:35:58.018Z,5.30
2023-03-29T20:38:25.918Z,6.35
2023-03-29T20:40:53.632Z,6.57
2023-03-29T20:43:20.938Z,5.38
2023-03-29T20:45:53.427Z,5.85
2023-03-29T20:48:23.207Z,6.20
2023-03-29T20:50:51.331Z,5.57
2023-03-29T20:53:20.341Z,6.25
2023-03-29T20:55:47.995Z,5.50
2023-03-29T20:58:16.145Z,6.47
2023-03-29T21:00:43.815Z,5.13
2023-03-29T21:03:11.508Z,5.85
2023-03-29T21:05:39.111Z,5.60
2023-03-29T21:08:06.518Z,6.20
2023-03-29T21:10:33.815Z,5.75
2023-03-29T21:13:02.582Z,4.73
2023-03-29T21:15:31.202Z,4.88
2023-03-29T21:17:58.724Z,5.18
2023-03-29T21:20:27.549Z,5.25
2023-03-29T21:22:54.906Z,5.05
2023-03-29T21:25:22.325Z,5.60
2023-03-29T21:27:49.653Z,5.57
2023-03-29T21:30:17.083Z,5.47
2023-03-29T21:32:44.378Z,5.43
2023-03-29T21:35:12.016Z,5.00
2023-03-29T21:37:39.321Z,4.73
2023-03-29T21:40:08.546Z,5.00
2023-03-29T21:42:35.838Z,5.40
2023-03-29T21:45:03.252Z,5.10
2023-03-29T21:47:30.681Z,4.78
2023-03-29T21:49:57.944Z,4.83
2023-03-29T21:52:25.500Z,5.25
2023-03-29T21:54:52.811Z,4.20
2023-03-29T21:57:20.381Z,5.10
2023-03-29T21:59:47.716Z,4.68
2023-03-29T22:02:14.993Z,5.10
2023-03-29T22:04:42.298Z,4.60
2023-03-29T22:07:10.734Z,4.35
2023-03-29T22:09:41.222Z,4.60
2023-03-29T22:12:09.939Z,5.13
2023-03-29T22:14:37.371Z,4.57
2023-03-29T22:17:09.353Z,5.25
2023-03-29T22:19:40.110Z,4.10
2023-03-29T22:22:13.425Z,4.00
2023-03-29T22:24:41.929Z,3.92
2023-03-29T22:27:09.427Z,4.03
2023-03-29T22:29:36.711Z,3.58
2023-03-29T22:32:04.120Z,4.47
2023-03-29T22:34:31.459Z,4.40
2023-03-29T22:36:58.804Z,5.03
2023-03-29T22:39:26.065Z,3.90
2023-03-29T22:41:53.342Z,4.25
2023-03-29T22:44:20.893Z,4.40
2023-03-29T22:46:48.208Z,4.10
2023-03-29T22:49:15.499Z,4.25
2023-03-29T22:51:42.744Z,3.90
2023-03-29T22:54:10.022Z,3.78
2023-03-29T22:56:37.264Z,4.28
2023-03-29T22:59:04.541Z,3.97
2023-03-29T23:01:31.925Z,4.20
2023-03-29T23:03:59.322Z,3.50
2023-03-29T23:06:26.679Z,4.30
2023-03-29T23:08:53.898Z,4.80
2023-03-29T23:11:21.628Z,4.15
2023-03-29T23:13:49.073Z,4.53
2023-03-29T23:16:16.563Z,4.67
2023-03-29T23:18:43.934Z,3.83
2023-03-29T23:21:11.240Z,4.18
2023-03-29T23:23:38.742Z,3.60
2023-03-29T23:26:06.631Z,4.68
2023-03-29T23:28:34.658Z,3.97
2023-03-29T23:31:06.377Z,4.18
2023-03-29T23:33:35.320Z,4.30
2023-03-29T23:36:03.819Z,4.70
2023-03-29T23:38:31.932Z,4.03
2023-03-29T23:41:00.289Z,4.23
2023-03-29T23:43:31.767Z,4.18
2023-03-29T23:46:03.320Z,4.22
2023-03-29T23:48:30.693Z,3.78
2023-03-29T23:50:58.152Z,3.85
2023-03-29T23:53:28.852Z,4.20
2023-03-29T23:56:01.259Z,4.75
2023-03-29T23:58:29.374Z,4.30
